createdAt,value
2018-07-03T00:00:37.087Z,1019.75
2018-07-03T00:01:37.569Z,1019.75
2018-07-03T00:02:36.910Z,1019.75
2018-07-03T00:03:37.359Z,1019.76
2018-07-03T00:04:37.837Z,1019.73
2018-07-03T00:05:37.325Z,1019.75
2018-07-03T00:06:37.669Z,1019.77
2018-07-03T00:07:37.458Z,1019.77
2018-07-03T00:08:36.956Z,1019.77
2018-07-03T00:09:37.309Z,1019.77
2018-07-03T00:10:37.736Z,1019.74
2018-07-03T00:11:58.347Z,1019.74
2018-07-03T00:12:58.809Z,1019.76
2018-07-03T00:14:41.710Z,1019.75
2018-07-03T00:15:42.712Z,1019.76
2018-07-03T00:16:42.070Z,1019.75
2018-07-03T00:17:42.528Z,1019.78
2018-07-03T00:18:41.921Z,1019.76
2018-07-03T00:20:04.194Z,1019.78
2018-07-03T00:21:03.682Z,1019.81
2018-07-03T00:22:04.199Z,1019.80
2018-07-03T00:23:04.652Z,1019.78
2018-07-03T00:24:04.200Z,1019.77
2018-07-03T00:25:03.496Z,1019.76
2018-07-03T00:26:04.140Z,1019.78
2018-07-03T00:27:03.889Z,1019.80
2018-07-03T00:28:04.536Z,1019.76
2018-07-03T00:29:03.815Z,1019.78
2018-07-03T00:30:04.160Z,1019.75
2018-07-03T00:31:03.613Z,1019.77
2018-07-03T00:32:04.222Z,1019.81
2018-07-03T00:33:03.778Z,1019.78
2018-07-03T00:34:04.348Z,1019.78
2018-07-03T00:35:03.673Z,1019.77
2018-07-03T00:36:03.959Z,1019.74
2018-07-03T00:37:04.242Z,1019.75
2018-07-03T00:38:03.574Z,1019.80
2018-07-03T00:39:25.149Z,1019.75
2018-07-03T00:40:25.443Z,1019.74
2018-07-03T00:41:25.790Z,1019.74
2018-07-03T00:42:25.257Z,1019.73
2018-07-03T00:43:25.783Z,1019.71
2018-07-03T00:44:25.121Z,1019.72
2018-07-03T00:45:25.492Z,1019.71
2018-07-03T00:46:26.837Z,1019.69
2018-07-03T00:47:25.353Z,1019.67
2018-07-03T00:48:26.071Z,1019.66
2018-07-03T00:49:25.460Z,1019.68
2018-07-03T00:50:25.963Z,1019.66
2018-07-03T00:51:25.455Z,1019.67
2018-07-03T00:52:25.936Z,1019.64
2018-07-03T00:53:46.542Z,1019.64
2018-07-03T00:54:47.097Z,1019.61
2018-07-03T00:55:47.673Z,1019.62
2018-07-03T00:57:08.311Z,1019.65
2018-07-03T00:58:08.814Z,1019.63
2018-07-03T00:59:29.350Z,1019.63
2018-07-03T01:00:30.057Z,1019.68
2018-07-03T01:01:29.552Z,1019.68
2018-07-03T01:02:30.686Z,1019.68
2018-07-03T01:03:30.267Z,1019.66
2018-07-03T01:04:29.526Z,1019.73
2018-07-03T01:05:30.026Z,1019.71
2018-07-03T01:06:29.598Z,1019.70
2018-07-03T01:07:29.992Z,1019.68
2018-07-03T01:08:29.526Z,1019.69
2018-07-03T01:09:29.792Z,1019.72
2018-07-03T01:10:30.149Z,1019.70
2018-07-03T01:11:29.697Z,1019.71
2018-07-03T01:12:30.137Z,1019.70
2018-07-03T01:13:29.420Z,1019.69
2018-07-03T01:14:30.059Z,1019.67
2018-07-03T01:15:29.621Z,1019.65
2018-07-03T01:16:30.066Z,1019.71
2018-07-03T01:17:29.635Z,1019.72
2018-07-03T01:18:30.256Z,1019.70
2018-07-03T01:19:29.512Z,1019.73
2018-07-03T01:20:51.186Z,1019.72
2018-07-03T01:21:51.548Z,1019.69
2018-07-03T01:22:51.786Z,1019.71
2018-07-03T01:23:51.115Z,1019.66
2018-07-03T01:24:51.550Z,1019.69
2018-07-03T01:25:50.973Z,1019.70
2018-07-03T01:26:51.555Z,1019.71
2018-07-03T01:27:51.104Z,1019.69
2018-07-03T01:28:51.329Z,1019.67
2018-07-03T01:29:51.855Z,1019.68
2018-07-03T01:30:51.108Z,1019.68
2018-07-03T01:31:51.697Z,1019.68
2018-07-03T01:33:12.578Z,1019.66
2018-07-03T01:34:13.164Z,1019.61
2018-07-03T01:35:12.595Z,1019.63
2018-07-03T01:36:13.027Z,1019.63
2018-07-03T01:37:12.792Z,1019.66
2018-07-03T01:38:13.199Z,1019.72
2018-07-03T01:39:12.793Z,1019.70
2018-07-03T01:40:13.233Z,1019.67
2018-07-03T01:41:13.595Z,1019.69
2018-07-03T01:42:55.539Z,1019.68
2018-07-03T01:43:55.885Z,1019.63
2018-07-03T01:45:17.310Z,1019.66
2018-07-03T01:46:17.531Z,1019.63
2018-07-03T01:47:17.980Z,1019.60
2018-07-03T01:48:17.245Z,1019.63
2018-07-03T01:49:17.553Z,1019.62
2018-07-03T01:50:18.398Z,1019.60
2018-07-03T01:51:18.102Z,1019.59
2018-07-03T01:52:17.447Z,1019.63
2018-07-03T01:53:18.170Z,1019.59
2018-07-03T01:54:17.838Z,1019.54
2018-07-03T01:55:17.365Z,1019.52
2018-07-03T01:56:18.210Z,1019.53
2018-07-03T01:57:17.642Z,1019.52
2018-07-03T01:58:18.043Z,1019.47
2018-07-03T01:59:17.743Z,1019.45
2018-07-03T02:00:39.248Z,1019.41
2018-07-03T02:01:39.703Z,1019.41
2018-07-03T02:02:39.384Z,1019.44
2018-07-03T02:04:00.886Z,1019.44
2018-07-03T02:05:01.437Z,1019.44
2018-07-03T02:06:01.006Z,1019.43
2018-07-03T02:07:01.259Z,1019.39
2018-07-03T02:08:01.618Z,1019.38
2018-07-03T02:09:01.165Z,1019.38
2018-07-03T02:10:01.581Z,1019.33
2018-07-03T02:11:00.968Z,1019.35
2018-07-03T02:12:01.518Z,1019.32
2018-07-03T02:13:01.059Z,1019.33
2018-07-03T02:14:01.396Z,1019.33
2018-07-03T02:15:01.906Z,1019.34
2018-07-03T02:16:01.202Z,1019.34
2018-07-03T02:17:01.641Z,1019.35
2018-07-03T02:18:00.868Z,1019.33
2018-07-03T02:19:01.220Z,1019.32
2018-07-03T02:20:01.563Z,1019.34
2018-07-03T02:21:01.094Z,1019.31
2018-07-03T02:22:01.562Z,1019.30
2018-07-03T02:23:01.031Z,1019.30
2018-07-03T02:24:01.643Z,1019.30
2018-07-03T02:25:01.102Z,1019.34
2018-07-03T02:26:01.511Z,1019.31
2018-07-03T02:27:01.742Z,1019.30
2018-07-03T02:28:01.022Z,1019.34
2018-07-03T02:29:01.183Z,1019.34
2018-07-03T02:30:01.619Z,1019.36
2018-07-03T02:31:01.210Z,1019.33
2018-07-03T02:32:01.730Z,1019.28
2018-07-03T02:33:01.567Z,1019.28
2018-07-03T02:34:01.074Z,1019.30
2018-07-03T02:35:01.541Z,1019.27
2018-07-03T02:36:01.681Z,1019.26
2018-07-03T02:37:00.888Z,1019.23
2018-07-03T02:38:01.257Z,1019.24
2018-07-03T02:39:01.638Z,1019.22
2018-07-03T02:40:22.497Z,1019.28
2018-07-03T02:41:22.966Z,1019.26
2018-07-03T02:42:22.474Z,1019.21
2018-07-03T02:43:23.143Z,1019.21
2018-07-03T02:44:22.980Z,1019.27
2018-07-03T02:45:23.000Z,1019.19
2018-07-03T02:46:22.287Z,1019.19
2018-07-03T02:47:43.917Z,1019.16
2018-07-03T02:48:44.302Z,1019.16
2018-07-03T02:50:06.073Z,1019.17
2018-07-03T02:51:06.489Z,1019.17
2018-07-03T02:52:06.925Z,1019.15
2018-07-03T02:53:27.627Z,1019.19
2018-07-03T02:54:28.315Z,1019.15
2018-07-03T02:55:28.454Z,1019.14
2018-07-03T02:56:28.039Z,1019.14
2018-07-03T02:57:28.689Z,1019.14
2018-07-03T02:58:28.412Z,1019.14
2018-07-03T02:59:28.010Z,1019.13
2018-07-03T03:00:27.728Z,1019.15
2018-07-03T03:01:28.401Z,1019.13
2018-07-03T03:02:27.922Z,1019.15
2018-07-03T03:03:28.670Z,1019.16
2018-07-03T03:04:28.131Z,1019.20
2018-07-03T03:05:27.890Z,1019.19
2018-07-03T03:06:28.399Z,1019.20
2018-07-03T03:07:28.105Z,1019.21
2018-07-03T03:08:27.792Z,1019.21
2018-07-03T03:09:28.525Z,1019.18
2018-07-03T03:10:27.801Z,1019.18
2018-07-03T03:11:28.209Z,1019.19
2018-07-03T03:12:28.563Z,1019.16
2018-07-03T03:13:28.208Z,1019.14
2018-07-03T03:14:27.833Z,1019.18
2018-07-03T03:15:28.492Z,1019.18
2018-07-03T03:16:28.294Z,1019.18
2018-07-03T03:17:27.806Z,1019.17
2018-07-03T03:18:28.203Z,1019.15
2018-07-03T03:19:27.692Z,1019.16
2018-07-03T03:20:28.160Z,1019.15
2018-07-03T03:21:27.735Z,1019.14
2018-07-03T03:22:28.309Z,1019.18
2018-07-03T03:23:28.012Z,1019.14
2018-07-03T03:24:49.491Z,1019.12
2018-07-03T03:26:54.024Z,1019.11
2018-07-03T03:27:54.511Z,1019.10
2018-07-03T03:28:54.114Z,1019.09
2018-07-03T03:30:15.472Z,1019.11
2018-07-03T03:31:15.953Z,1019.10
2018-07-03T03:32:37.638Z,1019.10
2018-07-03T03:33:37.997Z,1019.12
2018-07-03T03:34:38.577Z,1019.12
2018-07-03T03:35:38.335Z,1019.13
2018-07-03T03:36:37.651Z,1019.11
2018-07-03T03:37:38.306Z,1019.14
2018-07-03T03:38:38.211Z,1019.11
2018-07-03T03:39:37.786Z,1019.11
2018-07-03T03:40:59.468Z,1019.13
2018-07-03T03:41:59.885Z,1019.08
2018-07-03T03:43:00.445Z,1019.07
2018-07-03T03:44:00.197Z,1019.07
2018-07-03T03:44:59.778Z,1019.05
2018-07-03T03:46:00.182Z,1019.05
2018-07-03T03:46:59.664Z,1019.02
2018-07-03T03:48:00.298Z,1019.09
2018-07-03T03:48:59.781Z,1019.08
2018-07-03T03:50:00.547Z,1018.83
2018-07-03T03:51:00.336Z,1019.06
2018-07-03T03:51:59.853Z,1019.10
2018-07-03T03:53:00.571Z,1019.09
2018-07-03T03:54:00.284Z,1019.10
2018-07-03T03:54:59.631Z,1019.09
2018-07-03T03:56:00.314Z,1019.14
2018-07-03T03:57:21.345Z,1019.16
2018-07-03T03:58:21.878Z,1019.11
2018-07-03T03:59:42.807Z,1019.08
2018-07-03T04:00:43.380Z,1019.12
2018-07-03T04:01:42.984Z,1019.10
2018-07-03T04:02:43.353Z,1019.06
2018-07-03T04:03:42.915Z,1019.05
2018-07-03T04:05:26.345Z,1019.07
2018-07-03T04:06:26.710Z,1019.03
2018-07-03T04:07:26.288Z,1019.06
2018-07-03T04:08:26.925Z,1019.04
2018-07-03T04:09:26.394Z,1019.05
2018-07-03T04:10:27.784Z,1019.05
2018-07-03T04:11:27.318Z,1019.04
2018-07-03T04:12:48.164Z,1019.06
2018-07-03T04:13:48.677Z,1019.07
2018-07-03T04:14:49.131Z,1019.05
2018-07-03T04:16:09.687Z,1019.04
2018-07-03T04:17:10.365Z,1019.10
2018-07-03T04:18:10.031Z,1019.11
2018-07-03T04:19:31.730Z,1019.11
2018-07-03T04:20:32.432Z,1019.11
2018-07-03T04:21:32.020Z,1019.14
2018-07-03T04:22:32.561Z,1019.12
2018-07-03T04:24:15.024Z,1019.08
2018-07-03T04:25:15.546Z,1019.04
2018-07-03T04:26:36.833Z,1019.10
2018-07-03T04:27:42.931Z,1019.09
2018-07-03T04:28:45.587Z,1019.10
2018-07-03T04:29:58.594Z,1019.04
2018-07-03T04:30:59.848Z,1019.06
2018-07-03T04:31:59.435Z,1019.02
2018-07-03T04:32:58.857Z,1019.02
2018-07-03T04:33:59.444Z,1019.02
2018-07-03T04:34:58.719Z,1019.00
2018-07-03T04:35:59.349Z,1019.02
2018-07-03T04:36:58.959Z,1019.00
2018-07-03T04:37:58.644Z,1019.01
2018-07-03T04:38:59.252Z,1018.99
2018-07-03T04:39:58.786Z,1018.99
2018-07-03T04:41:00.187Z,1019.03
2018-07-03T04:42:20.017Z,1019.01
2018-07-03T04:43:41.998Z,1018.98
2018-07-03T04:44:42.971Z,1018.97
2018-07-03T04:45:42.408Z,1018.94
2018-07-03T04:46:43.204Z,1018.97
2018-07-03T04:47:42.668Z,1018.98
2018-07-03T04:48:42.460Z,1018.98
2018-07-03T04:49:42.367Z,1019.02
2018-07-03T04:50:42.752Z,1019.03
2018-07-03T04:51:42.104Z,1019.03
2018-07-03T04:52:42.616Z,1019.07
2018-07-03T04:53:42.310Z,1019.07
2018-07-03T04:54:42.053Z,1019.07
2018-07-03T04:55:42.733Z,1019.05
2018-07-03T04:56:42.421Z,1019.06
2018-07-03T04:57:42.025Z,1019.08
2018-07-03T04:58:42.796Z,1019.09
2018-07-03T04:59:42.291Z,1019.12
2018-07-03T05:00:42.881Z,1019.12
2018-07-03T05:02:25.542Z,1019.09
2018-07-03T05:03:48.049Z,1019.11
2018-07-03T05:04:47.988Z,1019.09
2018-07-03T05:05:48.597Z,1019.16
2018-07-03T05:06:48.162Z,1019.16
2018-07-03T05:07:48.468Z,1019.12
2018-07-03T05:08:47.981Z,1019.09
2018-07-03T05:09:48.703Z,1019.12
2018-07-03T05:10:48.309Z,1019.12
2018-07-03T05:11:49.419Z,1019.13
2018-07-03T05:12:48.161Z,1019.11
2018-07-03T05:13:47.903Z,1019.09
2018-07-03T05:14:48.453Z,1019.12
2018-07-03T05:15:48.000Z,1019.14
2018-07-03T05:16:49.866Z,1019.10
2018-07-03T05:17:49.189Z,1019.13
2018-07-03T05:18:47.778Z,1019.13
2018-07-03T05:19:48.252Z,1019.15
2018-07-03T05:20:47.909Z,1019.16
2018-07-03T05:21:48.804Z,1019.15
2018-07-03T05:22:48.542Z,1019.15
2018-07-03T05:24:09.744Z,1019.20
2018-07-03T05:25:31.610Z,1019.24
2018-07-03T05:26:32.239Z,1019.21
2018-07-03T05:28:57.758Z,1019.23
2018-07-03T05:29:58.071Z,1019.19
2018-07-03T05:31:20.222Z,1019.19
2018-07-03T05:32:20.406Z,1019.25
2018-07-03T05:33:20.145Z,1019.21
2018-07-03T05:34:19.977Z,1019.23
2018-07-03T05:35:22.406Z,1019.26
2018-07-03T05:36:18.982Z,1019.27
2018-07-03T05:37:19.505Z,1019.26
2018-07-03T05:38:19.653Z,1019.26
2018-07-03T05:39:19.314Z,1019.26
2018-07-03T05:40:19.039Z,1019.30
2018-07-03T05:41:20.112Z,1019.27
2018-07-03T05:42:19.951Z,1019.29
2018-07-03T05:43:19.944Z,1019.24
2018-07-03T05:44:19.689Z,1019.26
2018-07-03T05:45:19.958Z,1019.30
2018-07-03T05:46:20.151Z,1019.25
2018-07-03T05:48:06.514Z,1019.31
2018-07-03T05:49:03.847Z,1019.29
2018-07-03T05:50:04.154Z,1019.33
2018-07-03T05:51:02.837Z,1019.34
2018-07-03T05:52:04.183Z,1019.31
2018-07-03T05:53:03.477Z,1019.29
2018-07-03T05:54:03.755Z,1019.28
2018-07-03T05:55:03.825Z,1019.30
2018-07-03T05:56:13.536Z,1019.31
2018-07-03T05:57:03.750Z,1019.30
2018-07-03T05:58:03.537Z,1019.22
2018-07-03T05:59:03.457Z,1019.24
2018-07-03T06:00:03.122Z,1019.24
2018-07-03T06:01:03.727Z,1019.25
2018-07-03T06:02:04.307Z,1019.27
2018-07-03T06:03:03.124Z,1019.23
2018-07-03T06:04:03.309Z,1019.28
2018-07-03T06:05:03.032Z,1019.29
2018-07-03T06:06:04.061Z,1019.30
2018-07-03T06:07:25.978Z,1019.30
2018-07-03T06:08:26.770Z,1019.34
2018-07-03T06:09:25.712Z,1019.32
2018-07-03T06:10:25.572Z,1019.34
2018-07-03T06:11:25.735Z,1019.30
2018-07-03T06:12:26.011Z,1019.28
2018-07-03T06:13:25.852Z,1019.28
2018-07-03T06:14:25.609Z,1019.31
2018-07-03T06:15:25.172Z,1019.30
2018-07-03T06:16:26.942Z,1019.31
2018-07-03T06:17:26.271Z,1019.33
2018-07-03T06:18:26.288Z,1019.28
2018-07-03T06:19:50.631Z,1019.26
2018-07-03T06:20:49.147Z,1019.30
2018-07-03T06:21:48.885Z,1019.29
2018-07-03T06:22:49.654Z,1019.24
2018-07-03T06:23:49.869Z,1019.28
2018-07-03T06:24:49.348Z,1019.25
2018-07-03T06:25:50.191Z,1019.26
2018-07-03T06:26:49.317Z,1019.25
2018-07-03T06:27:49.398Z,1019.27
2018-07-03T06:28:48.986Z,1019.23
2018-07-03T06:29:48.836Z,1019.23
2018-07-03T06:30:51.087Z,1019.27
2018-07-03T06:31:48.842Z,1019.22
2018-07-03T06:32:49.402Z,1019.23
2018-07-03T06:33:49.056Z,1019.23
2018-07-03T06:34:49.807Z,1019.22
2018-07-03T06:35:50.272Z,1019.23
2018-07-03T06:36:48.739Z,1019.19
2018-07-03T06:37:51.576Z,1019.20
2018-07-03T06:38:49.035Z,1019.21
2018-07-03T06:39:48.924Z,1019.20
2018-07-03T06:40:48.573Z,1019.26
2018-07-03T06:41:49.476Z,1019.20
2018-07-03T06:42:49.093Z,1019.22
2018-07-03T06:43:48.687Z,1019.20
2018-07-03T06:44:49.604Z,1019.19
2018-07-03T06:45:49.547Z,1019.19
2018-07-03T06:46:49.275Z,1019.17
2018-07-03T06:47:48.860Z,1019.19
2018-07-03T06:48:48.851Z,1019.18
2018-07-03T06:49:48.608Z,1019.18
2018-07-03T06:50:49.390Z,1019.16
2018-07-03T06:51:49.146Z,1019.14
2018-07-03T06:52:49.193Z,1019.15
2018-07-03T06:53:48.576Z,1019.14
2018-07-03T06:54:49.383Z,1019.14
2018-07-03T06:56:10.438Z,1019.13
2018-07-03T06:57:33.097Z,1019.12
2018-07-03T06:58:33.805Z,1019.13
2018-07-03T06:59:56.481Z,1019.11
2018-07-03T07:01:00.368Z,1019.09
2018-07-03T07:01:56.854Z,1019.06
2018-07-03T07:02:56.967Z,1019.05
2018-07-03T07:03:56.836Z,1019.05
2018-07-03T07:04:56.505Z,1019.07
2018-07-03T07:05:56.921Z,1019.07
2018-07-03T07:06:56.558Z,1019.04
2018-07-03T07:07:56.091Z,1019.04
2018-07-03T07:09:18.245Z,1019.02
2018-07-03T07:10:19.133Z,1019.02
2018-07-03T07:11:18.644Z,1019.06
2018-07-03T07:12:40.101Z,1019.03
2018-07-03T07:13:39.590Z,1019.03
2018-07-03T07:15:01.679Z,1018.99
2018-07-03T07:16:02.469Z,1018.99
2018-07-03T07:17:02.258Z,1018.98
2018-07-03T07:18:01.664Z,1018.96
2018-07-03T07:19:02.502Z,1019.00
2018-07-03T07:20:02.212Z,1018.98
2018-07-03T07:21:01.813Z,1018.98
2018-07-03T07:22:02.435Z,1018.98
2018-07-03T07:23:02.111Z,1018.99
2018-07-03T07:24:01.873Z,1018.98
2018-07-03T07:25:01.945Z,1018.98
2018-07-03T07:26:23.846Z,1018.98
2018-07-03T07:27:24.413Z,1018.94
2018-07-03T07:28:24.225Z,1018.95
2018-07-03T07:29:23.800Z,1018.96
2018-07-03T07:30:24.256Z,1018.92
2018-07-03T07:31:23.879Z,1018.92
2018-07-03T07:32:24.375Z,1018.96
2018-07-03T07:33:24.131Z,1018.95
2018-07-03T07:34:23.878Z,1018.96
2018-07-03T07:35:24.534Z,1018.97
2018-07-03T07:37:07.192Z,1018.97
2018-07-03T07:38:07.756Z,1018.95
2018-07-03T07:39:07.382Z,1018.97
2018-07-03T07:40:29.907Z,1018.98
2018-07-03T07:41:51.986Z,1018.98
2018-07-03T07:42:52.601Z,1018.93
2018-07-03T07:44:35.588Z,1018.93
2018-07-03T07:45:35.284Z,1018.92
2018-07-03T07:46:56.527Z,1018.91
2018-07-03T07:48:18.134Z,1018.92
2018-07-03T07:49:18.594Z,1018.87
2018-07-03T07:50:19.133Z,1018.90
2018-07-03T07:51:40.078Z,1018.90
2018-07-03T07:52:40.589Z,1018.91
2018-07-03T07:53:40.126Z,1018.93
2018-07-03T07:54:40.670Z,1018.92
2018-07-03T07:55:40.188Z,1018.91
2018-07-03T07:57:02.119Z,1018.93
2018-07-03T07:58:02.800Z,1018.93
2018-07-03T07:59:02.369Z,1018.92
2018-07-03T08:00:02.905Z,1018.93
2018-07-03T08:01:02.373Z,1018.95
2018-07-03T08:02:02.135Z,1018.91
2018-07-03T08:03:02.597Z,1018.94
2018-07-03T08:04:02.386Z,1018.93
2018-07-03T08:05:24.056Z,1018.92
2018-07-03T08:06:45.852Z,1018.93
2018-07-03T08:08:30.154Z,1018.89
2018-07-03T08:09:30.906Z,1018.91
2018-07-03T08:10:30.624Z,1018.90
2018-07-03T08:11:30.142Z,1018.90
2018-07-03T08:12:30.890Z,1018.83
2018-07-03T08:13:52.108Z,1018.85
2018-07-03T08:14:52.660Z,1018.84
2018-07-03T08:15:52.418Z,1018.88
2018-07-03T08:16:53.023Z,1018.86
2018-07-03T08:17:52.828Z,1018.87
2018-07-03T08:18:52.314Z,1018.83
2018-07-03T08:19:52.930Z,1018.85
2018-07-03T08:20:52.513Z,1018.81
2018-07-03T08:21:53.186Z,1018.79
2018-07-03T08:22:52.728Z,1018.80
2018-07-03T08:23:52.416Z,1018.81
2018-07-03T08:25:14.398Z,1018.78
2018-07-03T08:26:57.660Z,1018.80
2018-07-03T08:27:58.116Z,1018.78
2018-07-03T08:28:57.729Z,1018.76
2018-07-03T08:29:58.368Z,1018.82
2018-07-03T08:30:57.814Z,1018.80
2018-07-03T08:31:59.670Z,1018.78
2018-07-03T08:32:58.347Z,1018.80
2018-07-03T08:34:23.637Z,1018.82
2018-07-03T08:35:20.828Z,1018.85
2018-07-03T08:36:20.679Z,1018.81
2018-07-03T08:37:20.686Z,1018.86
2018-07-03T08:38:20.216Z,1018.83
2018-07-03T08:39:20.155Z,1018.82
2018-07-03T08:40:19.896Z,1018.85
2018-07-03T08:41:41.117Z,1018.83
2018-07-03T08:42:41.794Z,1018.85
2018-07-03T08:43:42.988Z,1018.85
2018-07-03T08:44:41.846Z,1018.84
2018-07-03T08:46:02.718Z,1018.86
2018-07-03T08:47:03.548Z,1018.85
2018-07-03T08:48:04.134Z,1018.80
2018-07-03T08:49:02.803Z,1018.81
2018-07-03T08:50:03.684Z,1018.78
2018-07-03T08:51:03.637Z,1018.81
2018-07-03T08:52:03.772Z,1018.79
2018-07-03T08:53:04.106Z,1018.74
2018-07-03T08:54:02.705Z,1018.77
2018-07-03T08:55:03.688Z,1018.74
2018-07-03T08:56:03.285Z,1018.70
2018-07-03T08:57:03.062Z,1018.73
2018-07-03T08:58:02.748Z,1018.71
2018-07-03T08:59:03.339Z,1018.70
2018-07-03T09:00:03.190Z,1018.74
2018-07-03T09:01:02.985Z,1018.73
2018-07-03T09:02:03.475Z,1018.72
2018-07-03T09:03:03.109Z,1018.68
2018-07-03T09:04:04.607Z,1018.63
2018-07-03T09:05:04.070Z,1018.66
2018-07-03T09:06:03.047Z,1018.66
2018-07-03T09:07:03.873Z,1018.66
2018-07-03T09:08:03.454Z,1018.65
2018-07-03T09:09:02.956Z,1018.62
2018-07-03T09:10:03.805Z,1018.63
2018-07-03T09:11:03.750Z,1018.65
2018-07-03T09:12:03.541Z,1018.63
2018-07-03T09:13:03.131Z,1018.66
2018-07-03T09:14:02.934Z,1018.67
2018-07-03T09:15:03.685Z,1018.65
2018-07-03T09:16:03.506Z,1018.61
2018-07-03T09:17:24.372Z,1018.59
2018-07-03T09:18:46.403Z,1018.55
2018-07-03T09:19:46.894Z,1018.52
2018-07-03T09:20:47.549Z,1018.50
2018-07-03T09:21:47.097Z,1018.53
2018-07-03T09:22:47.401Z,1018.50
2018-07-03T09:23:47.463Z,1018.50
2018-07-03T09:24:46.961Z,1018.52
2018-07-03T09:25:47.708Z,1018.52
2018-07-03T09:26:47.903Z,1018.50
2018-07-03T09:27:47.184Z,1018.52
2018-07-03T09:29:09.105Z,1018.52
2018-07-03T09:30:08.906Z,1018.49
2018-07-03T09:31:08.937Z,1018.49
2018-07-03T09:32:08.549Z,1018.44
2018-07-03T09:33:09.073Z,1018.44
2018-07-03T09:34:08.505Z,1018.47
2018-07-03T09:35:09.023Z,1018.45
2018-07-03T09:36:09.492Z,1018.42
2018-07-03T09:37:30.683Z,1018.41
2018-07-03T09:38:31.445Z,1018.33
2018-07-03T09:39:31.034Z,1018.34
2018-07-03T09:40:30.544Z,1018.34
2018-07-03T09:41:31.540Z,1018.38
2018-07-03T09:42:55.196Z,1018.38
2018-07-03T09:43:54.765Z,1018.35
2018-07-03T09:44:55.185Z,1018.33
2018-07-03T09:46:16.911Z,1018.33
2018-07-03T09:47:38.786Z,1018.32
2018-07-03T09:49:00.759Z,1018.29
2018-07-03T09:50:01.659Z,1018.34
2018-07-03T09:51:01.445Z,1018.30
2018-07-03T09:52:01.325Z,1018.35
2018-07-03T09:53:00.899Z,1018.29
2018-07-03T09:54:01.703Z,1018.31
2018-07-03T09:55:01.460Z,1018.28
2018-07-03T09:56:01.012Z,1018.31
2018-07-03T09:57:01.709Z,1018.29
2018-07-03T09:58:01.659Z,1018.34
2018-07-03T09:59:01.777Z,1018.35
2018-07-03T10:00:22.748Z,1018.39
2018-07-03T10:01:23.430Z,1018.35
2018-07-03T10:02:23.275Z,1018.30
2018-07-03T10:03:23.066Z,1018.35
2018-07-03T10:04:24.038Z,1018.31
2018-07-03T10:05:23.577Z,1018.33
2018-07-03T10:06:23.175Z,1018.30
2018-07-03T10:07:45.819Z,1018.33
2018-07-03T10:08:45.349Z,1018.31
2018-07-03T10:09:46.152Z,1018.31
2018-07-03T10:10:45.815Z,1018.31
2018-07-03T10:11:45.535Z,1018.32
2018-07-03T10:12:46.278Z,1018.29
2018-07-03T10:14:07.249Z,1018.32
2018-07-03T10:15:29.595Z,1018.30
2018-07-03T10:16:30.358Z,1018.33
2018-07-03T10:17:30.188Z,1018.36
2018-07-03T10:18:29.946Z,1018.36
2018-07-03T10:19:30.596Z,1018.37
2018-07-03T10:20:52.101Z,1018.34
2018-07-03T10:21:53.190Z,1018.36
2018-07-03T10:22:53.060Z,1018.39
2018-07-03T10:23:53.028Z,1018.41
2018-07-03T10:24:52.757Z,1018.37
2018-07-03T10:25:52.194Z,1018.38
2018-07-03T10:27:14.340Z,1018.38
2018-07-03T10:28:15.036Z,1018.42
2018-07-03T10:29:14.565Z,1018.40
2018-07-03T10:30:15.564Z,1018.43
2018-07-03T10:31:15.340Z,1018.37
2018-07-03T10:32:14.976Z,1018.34
2018-07-03T10:33:14.771Z,1018.33
2018-07-03T10:34:15.353Z,1018.31
2018-07-03T10:35:15.334Z,1018.32
2018-07-03T10:36:15.204Z,1018.31
2018-07-03T10:37:14.709Z,1018.33
2018-07-03T10:38:15.321Z,1018.30
2018-07-03T10:39:15.049Z,1018.24
2018-07-03T10:40:57.914Z,1018.19
2018-07-03T10:41:57.528Z,1018.14
2018-07-03T10:43:03.383Z,1018.14
2018-07-03T10:43:58.030Z,1018.15
2018-07-03T10:44:57.818Z,1018.14
2018-07-03T10:45:59.009Z,1018.11
2018-07-03T10:46:57.573Z,1018.12
2018-07-03T10:47:58.224Z,1018.14
2018-07-03T10:48:57.629Z,1018.15
2018-07-03T10:49:58.369Z,1018.13
2018-07-03T10:50:58.004Z,1018.12
2018-07-03T10:51:57.485Z,1018.15
2018-07-03T10:53:40.945Z,1018.14
2018-07-03T10:54:41.646Z,1018.16
2018-07-03T10:55:41.404Z,1018.19
2018-07-03T10:56:41.907Z,1018.20
2018-07-03T10:57:41.805Z,1018.19
2018-07-03T10:58:41.298Z,1018.16
2018-07-03T10:59:42.041Z,1018.16
2018-07-03T11:00:41.683Z,1018.16
2018-07-03T11:02:03.332Z,1018.22
2018-07-03T11:03:03.126Z,1018.14
2018-07-03T11:04:02.902Z,1018.16
2018-07-03T11:05:02.953Z,1018.19
2018-07-03T11:06:03.678Z,1018.21
2018-07-03T11:07:03.099Z,1018.09
2018-07-03T11:08:02.806Z,1018.24
2018-07-03T11:09:04.222Z,1018.25
2018-07-03T11:10:03.063Z,1018.28
2018-07-03T11:11:02.821Z,1018.29
2018-07-03T11:12:03.449Z,1018.25
2018-07-03T11:13:03.248Z,1018.31
2018-07-03T11:14:02.838Z,1018.28
2018-07-03T11:15:03.032Z,1018.30
2018-07-03T11:16:02.947Z,1018.27
2018-07-03T11:17:03.627Z,1018.21
2018-07-03T11:18:03.458Z,1018.20
2018-07-03T11:19:03.433Z,1018.20
2018-07-03T11:20:03.504Z,1018.19
2018-07-03T11:21:03.240Z,1018.19
2018-07-03T11:22:03.226Z,1018.22
2018-07-03T11:23:02.702Z,1018.20
2018-07-03T11:24:03.705Z,1018.15
2018-07-03T11:25:03.475Z,1018.11
2018-07-03T11:26:24.807Z,1018.03
2018-07-03T11:27:25.441Z,1018.01
2018-07-03T11:28:25.233Z,1017.99
2018-07-03T11:29:24.950Z,1017.97
2018-07-03T11:30:48.276Z,1017.98
2018-07-03T11:31:48.158Z,1017.95
2018-07-03T11:32:47.977Z,1018.01
2018-07-03T11:33:48.956Z,1017.99
2018-07-03T11:34:49.156Z,1018.00
2018-07-03T11:35:48.127Z,1017.95
2018-07-03T11:36:47.789Z,1017.93
2018-07-03T11:37:48.817Z,1017.93
2018-07-03T11:38:48.624Z,1017.88
2018-07-03T11:39:48.423Z,1017.90
2018-07-03T11:40:47.899Z,1017.89
2018-07-03T11:41:48.492Z,1017.86
2018-07-03T11:42:48.320Z,1017.87
2018-07-03T11:43:48.817Z,1017.81
2018-07-03T11:44:48.767Z,1017.83
2018-07-03T11:45:48.447Z,1017.83
2018-07-03T11:46:48.093Z,1017.84
2018-07-03T11:48:30.734Z,1017.79
2018-07-03T11:49:31.358Z,1017.80
2018-07-03T11:51:14.179Z,1017.80
2018-07-03T11:52:15.044Z,1017.81
2018-07-03T11:53:14.549Z,1017.79
2018-07-03T11:54:14.421Z,1017.83
2018-07-03T11:55:14.017Z,1017.83
2018-07-03T11:56:14.698Z,1017.83
2018-07-03T11:57:14.782Z,1017.77
2018-07-03T11:58:14.859Z,1017.77
2018-07-03T11:59:14.649Z,1017.80
2018-07-03T12:00:15.469Z,1017.82
2018-07-03T12:01:14.664Z,1017.80
2018-07-03T12:02:14.993Z,1017.77
2018-07-03T12:03:14.800Z,1017.77
2018-07-03T12:04:37.126Z,1017.80
2018-07-03T12:05:37.208Z,1017.77
2018-07-03T12:06:36.783Z,1017.79
2018-07-03T12:07:58.486Z,1017.76
2018-07-03T12:08:59.307Z,1017.72
2018-07-03T12:09:58.961Z,1017.70
2018-07-03T12:10:58.843Z,1017.71
2018-07-03T12:11:58.840Z,1017.71
2018-07-03T12:12:58.732Z,1017.64
2018-07-03T12:13:58.463Z,1017.60
2018-07-03T12:14:59.509Z,1017.70
2018-07-03T12:15:59.440Z,1017.69
2018-07-03T12:17:42.276Z,1017.66
2018-07-03T12:18:43.902Z,1017.71
2018-07-03T12:19:42.676Z,1017.70
2018-07-03T12:20:42.435Z,1017.66
2018-07-03T12:21:42.823Z,1017.67
2018-07-03T12:22:42.683Z,1017.64
2018-07-03T12:23:42.789Z,1017.58
2018-07-03T12:24:42.473Z,1017.58
2018-07-03T12:25:42.542Z,1017.61
2018-07-03T12:26:42.471Z,1017.66
2018-07-03T12:27:43.132Z,1017.62
2018-07-03T12:29:18.631Z,1017.59
2018-07-03T12:30:41.386Z,1017.58
2018-07-03T12:31:42.364Z,1017.53
2018-07-03T12:32:41.958Z,1017.56
2018-07-03T12:34:03.379Z,1017.50
2018-07-03T12:35:25.745Z,1017.51
2018-07-03T12:36:26.632Z,1017.49
2018-07-03T12:37:26.364Z,1017.46
2018-07-03T12:38:26.004Z,1017.47
2018-07-03T12:39:25.566Z,1017.48
2018-07-03T12:40:26.147Z,1017.50
2018-07-03T12:41:26.991Z,1017.48
2018-07-03T12:42:25.892Z,1017.48
2018-07-03T12:43:25.530Z,1017.48
2018-07-03T12:44:26.460Z,1017.46
2018-07-03T12:45:26.473Z,1017.49
2018-07-03T12:46:26.513Z,1017.48
2018-07-03T12:47:26.205Z,1017.48